sensor_id;sensor_type;location;lat;lon;timestamp;P1;durP1;ratioP1;P2;durP2;ratioP2
52708;SDS011;38606;52.986;6.980;2022-08-20T00:00:16;14.98;;;10.75;;
52708;SDS011;38606;52.986;6.980;2022-08-20T00:02:45;15.63;;;11.90;;
52708;SDS011;38606;52.986;6.980;2022-08-20T00:05:14;16.58;;;12.35;;
52708;SDS011;38606;52.986;6.980;2022-08-20T00:07:44;16.95;;;12.05;;
52708;SDS011;38606;52.986;6.980;2022-08-20T00:10:10;15.23;;;11.15;;
52708;SDS011;38606;52.986;6.980;2022-08-20T00:12:36;13.40;;;10.55;;
52708;SDS011;38606;52.986;6.980;2022-08-20T00:15:07;14.15;;;10.68;;
52708;SDS011;38606;52.986;6.980;2022-08-20T00:17:33;17.75;;;10.63;;
52708;SDS011;38606;52.986;6.980;2022-08-20T00:20:07;18.30;;;12.25;;
52708;SDS011;38606;52.986;6.980;2022-08-20T00:22:35;13.88;;;10.57;;
52708;SDS011;38606;52.986;6.980;2022-08-20T00:25:03;16.02;;;11.13;;
52708;SDS011;38606;52.986;6.980;2022-08-20T00:27:30;17.17;;;13.15;;
52708;SDS011;38606;52.986;6.980;2022-08-20T00:29:56;15.60;;;11.10;;
52708;SDS011;38606;52.986;6.980;2022-08-20T00:32:21;13.23;;;11.07;;
52708;SDS011;38606;52.986;6.980;2022-08-20T00:34:47;15.57;;;11.27;;
52708;SDS011;38606;52.986;6.980;2022-08-20T00:37:13;15.90;;;10.50;;
52708;SDS011;38606;52.986;6.980;2022-08-20T00:39:39;13.65;;;10.52;;
52708;SDS011;38606;52.986;6.980;2022-08-20T00:42:06;13.13;;;10.02;;
52708;SDS011;38606;52.986;6.980;2022-08-20T00:44:32;15.85;;;11.05;;
52708;SDS011;38606;52.986;6.980;2022-08-20T00:46:59;15.23;;;11.20;;
52708;SDS011;38606;52.986;6.980;2022-08-20T00:49:27;13.70;;;11.43;;
52708;SDS011;38606;52.986;6.980;2022-08-20T00:51:57;16.80;;;11.05;;
52708;SDS011;38606;52.986;6.980;2022-08-20T00:54:33;16.23;;;12.40;;
52708;SDS011;38606;52.986;6.980;2022-08-20T00:57:09;18.23;;;11.65;;
52708;SDS011;38606;52.986;6.980;2022-08-20T00:59:40;16.30;;;11.00;;
52708;SDS011;38606;52.986;6.980;2022-08-20T01:02:09;17.10;;;11.60;;
52708;SDS011;38606;52.986;6.980;2022-08-20T01:04:37;14.73;;;10.93;;
52708;SDS011;38606;52.986;6.980;2022-08-20T01:07:04;19.05;;;11.07;;
52708;SDS011;38606;52.986;6.980;2022-08-20T01:09:31;17.85;;;11.07;;
52708;SDS011;38606;52.986;6.980;2022-08-20T01:11:57;15.90;;;11.73;;
52708;SDS011;38606;52.986;6.980;2022-08-20T01:14:23;14.80;;;10.50;;
52708;SDS011;38606;52.986;6.980;2022-08-20T01:17:01;21.83;;;11.85;;
52708;SDS011;38606;52.986;6.980;2022-08-20T01:19:50;15.30;;;10.80;;
52708;SDS011;38606;52.986;6.980;2022-08-20T01:25:49;17.52;;;10.52;;
52708;SDS011;38606;52.986;6.980;2022-08-20T01:28:20;15.05;;;9.93;;
52708;SDS011;38606;52.986;6.980;2022-08-20T01:30:49;17.60;;;10.93;;
52708;SDS011;38606;52.986;6.980;2022-08-20T01:33:16;18.58;;;11.52;;
52708;SDS011;38606;52.986;6.980;2022-08-20T01:35:43;20.35;;;10.82;;
52708;SDS011;38606;52.986;6.980;2022-08-20T01:38:10;14.52;;;9.77;;
52708;SDS011;38606;52.986;6.980;2022-08-20T01:43:16;15.43;;;11.48;;
52708;SDS011;38606;52.986;6.980;2022-08-20T01:45:42;17.90;;;9.85;;
52708;SDS011;38606;52.986;6.980;2022-08-20T01:48:08;12.93;;;9.45;;
52708;SDS011;38606;52.986;6.980;2022-08-20T01:50:34;18.58;;;10.85;;
52708;SDS011;38606;52.986;6.980;2022-08-20T01:55:44;13.73;;;10.25;;
52708;SDS011;38606;52.986;6.980;2022-08-20T01:58:11;17.42;;;10.02;;
52708;SDS011;38606;52.986;6.980;2022-08-20T02:00:37;17.08;;;10.77;;
52708;SDS011;38606;52.986;6.980;2022-08-20T02:03:03;16.20;;;9.68;;
52708;SDS011;38606;52.986;6.980;2022-08-20T02:05:29;18.83;;;10.00;;
52708;SDS011;38606;52.986;6.980;2022-08-20T02:07:56;15.05;;;9.43;;
52708;SDS011;38606;52.986;6.980;2022-08-20T02:10:22;16.23;;;9.75;;
52708;SDS011;38606;52.986;6.980;2022-08-20T02:12:48;10.48;;;8.90;;
52708;SDS011;38606;52.986;6.980;2022-08-20T02:15:14;16.27;;;9.70;;
52708;SDS011;38606;52.986;6.980;2022-08-20T02:17:40;14.07;;;9.52;;
52708;SDS011;38606;52.986;6.980;2022-08-20T02:20:11;13.20;;;9.10;;
52708;SDS011;38606;52.986;6.980;2022-08-20T02:22:41;14.25;;;9.48;;
52708;SDS011;38606;52.986;6.980;2022-08-20T02:25:08;13.57;;;9.60;;
52708;SDS011;38606;52.986;6.980;2022-08-20T02:27:35;13.65;;;9.88;;
52708;SDS011;38606;52.986;6.980;2022-08-20T02:30:08;15.95;;;9.48;;
52708;SDS011;38606;52.986;6.980;2022-08-20T02:32:37;13.93;;;9.60;;
52708;SDS011;38606;52.986;6.980;2022-08-20T02:35:04;15.23;;;9.52;;
52708;SDS011;38606;52.986;6.980;2022-08-20T02:37:32;16.60;;;9.35;;
52708;SDS011;38606;52.986;6.980;2022-08-20T02:39:59;14.80;;;8.80;;
52708;SDS011;38606;52.986;6.980;2022-08-20T02:42:25;13.77;;;8.90;;
52708;SDS011;38606;52.986;6.980;2022-08-20T02:44:51;13.77;;;8.52;;
52708;SDS011;38606;52.986;6.980;2022-08-20T02:47:18;14.93;;;8.30;;
52708;SDS011;38606;52.986;6.980;2022-08-20T02:49:43;17.63;;;8.77;;
52708;SDS011;38606;52.986;6.980;2022-08-20T02:52:09;15.25;;;8.55;;
52708;SDS011;38606;52.986;6.980;2022-08-20T02:54:35;20.60;;;9.30;;
52708;SDS011;38606;52.986;6.980;2022-08-20T02:57:01;15.88;;;8.00;;
52708;SDS011;38606;52.986;6.980;2022-08-20T02:59:27;12.65;;;8.52;;
52708;SDS011;38606;52.986;6.980;2022-08-20T03:01:53;18.95;;;8.05;;
52708;SDS011;38606;52.986;6.980;2022-08-20T03:04:19;19.35;;;9.30;;
52708;SDS011;38606;52.986;6.980;2022-08-20T03:06:45;17.48;;;7.65;;
52708;SDS011;38606;52.986;6.980;2022-08-20T03:09:11;16.13;;;8.13;;
52708;SDS011;38606;52.986;6.980;2022-08-20T03:11:36;13.80;;;7.80;;
52708;SDS011;38606;52.986;6.980;2022-08-20T03:14:04;16.63;;;8.43;;
52708;SDS011;38606;52.986;6.980;2022-08-20T03:16:30;16.02;;;7.55;;
52708;SDS011;38606;52.986;6.980;2022-08-20T03:18:56;13.35;;;8.02;;
52708;SDS011;38606;52.986;6.980;2022-08-20T03:21:22;15.45;;;7.32;;
52708;SDS011;38606;52.986;6.980;2022-08-20T03:23:48;10.68;;;7.32;;
52708;SDS011;38606;52.986;6.980;2022-08-20T03:26:14;16.05;;;8.02;;
52708;SDS011;38606;52.986;6.980;2022-08-20T03:28:40;17.25;;;7.95;;
52708;SDS011;38606;52.986;6.980;2022-08-20T03:31:06;13.32;;;8.07;;
52708;SDS011;38606;52.986;6.980;2022-08-20T03:33:32;13.88;;;8.02;;
52708;SDS011;38606;52.986;6.980;2022-08-20T03:35:59;18.83;;;7.60;;
52708;SDS011;38606;52.986;6.980;2022-08-20T03:38:25;13.98;;;7.07;;
52708;SDS011;38606;52.986;6.980;2022-08-20T03:40:51;14.98;;;7.53;;
52708;SDS011;38606;52.986;6.980;2022-08-20T03:43:17;19.17;;;7.60;;
52708;SDS011;38606;52.986;6.980;2022-08-20T03:45:43;13.93;;;7.32;;
52708;SDS011;38606;52.986;6.980;2022-08-20T03:48:11;14.30;;;7.35;;
52708;SDS011;38606;52.986;6.980;2022-08-20T03:50:39;14.80;;;7.30;;
52708;SDS011;38606;52.986;6.980;2022-08-20T03:53:06;13.88;;;7.00;;
52708;SDS011;38606;52.986;6.980;2022-08-20T03:55:33;15.25;;;6.85;;
52708;SDS011;38606;52.986;6.980;2022-08-20T03:58:00;16.73;;;7.72;;
52708;SDS011;38606;52.986;6.980;2022-08-20T04:00:29;16.33;;;7.25;;
52708;SDS011;38606;52.986;6.980;2022-08-20T04:03:22;14.85;;;7.32;;
52708;SDS011;38606;52.986;6.980;2022-08-20T04:05:48;15.45;;;8.20;;
52708;SDS011;38606;52.986;6.980;2022-08-20T04:08:21;22.60;;;8.25;;
52708;SDS011;38606;52.986;6.980;2022-08-20T04:10:49;12.70;;;7.07;;
52708;SDS011;38606;52.986;6.980;2022-08-20T04:13:15;16.33;;;7.10;;
52708;SDS011;38606;52.986;6.980;2022-08-20T04:15:43;13.05;;;6.18;;
52708;SDS011;38606;52.986;6.980;2022-08-20T04:18:09;11.43;;;6.43;;
52708;SDS011;38606;52.986;6.980;2022-08-20T04:20:38;11.57;;;6.70;;
52708;SDS011;38606;52.986;6.980;2022-08-20T04:23:05;14.38;;;6.82;;
52708;SDS011;38606;52.986;6.980;2022-08-20T04:25:33;15.60;;;7.13;;
52708;SDS011;38606;52.986;6.980;2022-08-20T04:28:01;15.73;;;6.32;;
52708;SDS011;38606;52.986;6.980;2022-08-20T04:30:29;13.90;;;6.43;;
52708;SDS011;38606;52.986;6.980;2022-08-20T04:32:56;12.50;;;6.30;;
52708;SDS011;38606;52.986;6.980;2022-08-20T04:35:24;14.57;;;6.72;;
52708;SDS011;38606;52.986;6.980;2022-08-20T04:37:56;11.82;;;6.25;;
52708;SDS011;38606;52.986;6.980;2022-08-20T04:40:24;13.73;;;5.97;;
52708;SDS011;38606;52.986;6.980;2022-08-20T04:43:08;14.57;;;6.15;;
52708;SDS011;38606;52.986;6.980;2022-08-20T04:45:34;10.10;;;5.93;;
52708;SDS011;38606;52.986;6.980;2022-08-20T04:48:01;13.93;;;6.07;;
52708;SDS011;38606;52.986;6.980;2022-08-20T04:50:35;11.00;;;6.13;;
52708;SDS011;38606;52.986;6.980;2022-08-20T04:53:02;14.57;;;6.43;;
52708;SDS011;38606;52.986;6.980;2022-08-20T04:55:30;14.05;;;6.63;;
52708;SDS011;38606;52.986;6.980;2022-08-20T04:58:08;11.15;;;6.75;;
52708;SDS011;38606;52.986;6.980;2022-08-20T05:00:59;12.05;;;6.53;;
52708;SDS011;38606;52.986;6.980;2022-08-20T05:03:38;12.30;;;5.75;;
52708;SDS011;38606;52.986;6.980;2022-08-20T05:06:04;16.20;;;6.25;;
52708;SDS011;38606;52.986;6.980;2022-08-20T05:08:32;14.20;;;5.90;;
52708;SDS011;38606;52.986;6.980;2022-08-20T05:10:59;12.60;;;5.32;;
52708;SDS011;38606;52.986;6.980;2022-08-20T05:13:25;16.92;;;5.40;;
52708;SDS011;38606;52.986;6.980;2022-08-20T05:15:51;13.13;;;5.15;;
52708;SDS011;38606;52.986;6.980;2022-08-20T05:18:18;12.57;;;5.20;;
52708;SDS011;38606;52.986;6.980;2022-08-20T05:20:47;11.43;;;4.97;;
52708;SDS011;38606;52.986;6.980;2022-08-20T05:23:14;18.20;;;5.57;;
52708;SDS011;38606;52.986;6.980;2022-08-20T05:25:41;10.85;;;4.63;;
52708;SDS011;38606;52.986;6.980;2022-08-20T05:28:11;10.43;;;4.90;;
52708;SDS011;38606;52.986;6.980;2022-08-20T05:30:42;10.02;;;4.32;;
52708;SDS011;38606;52.986;6.980;2022-08-20T05:33:10;8.73;;;4.50;;
52708;SDS011;38606;52.986;6.980;2022-08-20T05:35:39;14.70;;;4.55;;
52708;SDS011;38606;52.986;6.980;2022-08-20T05:38:06;9.65;;;4.30;;
52708;SDS011;38606;52.986;6.980;2022-08-20T05:40:35;10.75;;;4.60;;
52708;SDS011;38606;52.986;6.980;2022-08-20T05:43:02;8.02;;;3.75;;
52708;SDS011;38606;52.986;6.980;2022-08-20T05:45:29;16.92;;;5.10;;
52708;SDS011;38606;52.986;6.980;2022-08-20T05:47:56;10.48;;;4.32;;
52708;SDS011;38606;52.986;6.980;2022-08-20T05:50:22;11.93;;;4.45;;
52708;SDS011;38606;52.986;6.980;2022-08-20T05:52:48;7.78;;;4.15;;
52708;SDS011;38606;52.986;6.980;2022-08-20T05:55:14;12.95;;;4.78;;
52708;SDS011;38606;52.986;6.980;2022-08-20T05:57:40;8.93;;;4.70;;
52708;SDS011;38606;52.986;6.980;2022-08-20T06:00:08;11.45;;;4.53;;
52708;SDS011;38606;52.986;6.980;2022-08-20T06:02:36;11.52;;;4.60;;
52708;SDS011;38606;52.986;6.980;2022-08-20T06:05:20;9.13;;;3.90;;
52708;SDS011;38606;52.986;6.980;2022-08-20T06:07:46;8.75;;;4.43;;
52708;SDS011;38606;52.986;6.980;2022-08-20T06:10:15;15.60;;;5.03;;
52708;SDS011;38606;52.986;6.980;2022-08-20T06:12:41;11.65;;;5.18;;
52708;SDS011;38606;52.986;6.980;2022-08-20T06:15:09;14.35;;;4.75;;
52708;SDS011;38606;52.986;6.980;2022-08-20T06:17:36;13.43;;;4.60;;
52708;SDS011;38606;52.986;6.980;2022-08-20T06:20:04;14.35;;;5.43;;
52708;SDS011;38606;52.986;6.980;2022-08-20T06:22:31;11.10;;;4.63;;
52708;SDS011;38606;52.986;6.980;2022-08-20T06:24:58;13.35;;;4.55;;
52708;SDS011;38606;52.986;6.980;2022-08-20T06:27:24;11.90;;;4.65;;
52708;SDS011;38606;52.986;6.980;2022-08-20T06:29:50;10.52;;;4.70;;
52708;SDS011;38606;52.986;6.980;2022-08-20T06:32:18;11.63;;;4.05;;
52708;SDS011;38606;52.986;6.980;2022-08-20T06:34:45;13.20;;;3.97;;
52708;SDS011;38606;52.986;6.980;2022-08-20T06:37:14;10.23;;;4.00;;
52708;SDS011;38606;52.986;6.980;2022-08-20T06:39:41;11.52;;;3.88;;
52708;SDS011;38606;52.986;6.980;2022-08-20T06:42:06;15.50;;;4.40;;
52708;SDS011;38606;52.986;6.980;2022-08-20T06:44:33;15.38;;;3.65;;
52708;SDS011;38606;52.986;6.980;2022-08-20T06:46:59;10.35;;;3.35;;
52708;SDS011;38606;52.986;6.980;2022-08-20T06:49:25;11.18;;;3.55;;
52708;SDS011;38606;52.986;6.980;2022-08-20T06:51:51;12.32;;;3.03;;
52708;SDS011;38606;52.986;6.980;2022-08-20T06:54:17;6.78;;;2.38;;
52708;SDS011;38606;52.986;6.980;2022-08-20T06:56:43;10.05;;;2.80;;
52708;SDS011;38606;52.986;6.980;2022-08-20T06:59:08;15.05;;;3.17;;
52708;SDS011;38606;52.986;6.980;2022-08-20T07:01:34;12.52;;;2.88;;
52708;SDS011;38606;52.986;6.980;2022-08-20T07:04:00;12.40;;;2.60;;
52708;SDS011;38606;52.986;6.980;2022-08-20T07:06:25;9.52;;;2.25;;
52708;SDS011;38606;52.986;6.980;2022-08-20T07:08:52;12.90;;;2.70;;
52708;SDS011;38606;52.986;6.980;2022-08-20T07:11:18;13.73;;;2.40;;
52708;SDS011;38606;52.986;6.980;2022-08-20T07:13:44;8.48;;;2.15;;
52708;SDS011;38606;52.986;6.980;2022-08-20T07:16:10;12.25;;;2.08;;
52708;SDS011;38606;52.986;6.980;2022-08-20T07:18:36;9.38;;;2.00;;
52708;SDS011;38606;52.986;6.980;2022-08-20T07:21:02;6.25;;;2.03;;
52708;SDS011;38606;52.986;6.980;2022-08-20T07:23:27;8.48;;;2.25;;
52708;SDS011;38606;52.986;6.980;2022-08-20T07:25:55;8.10;;;2.05;;
52708;SDS011;38606;52.986;6.980;2022-08-20T07:28:22;9.18;;;1.92;;
52708;SDS011;38606;52.986;6.980;2022-08-20T07:30:49;9.73;;;2.10;;
52708;SDS011;38606;52.986;6.980;2022-08-20T07:33:34;7.43;;;1.90;;
52708;SDS011;38606;52.986;6.980;2022-08-20T07:36:04;5.45;;;1.40;;
52708;SDS011;38606;52.986;6.980;2022-08-20T07:38:31;8.02;;;1.85;;
52708;SDS011;38606;52.986;6.980;2022-08-20T07:40:59;8.45;;;1.90;;
52708;SDS011;38606;52.986;6.980;2022-08-20T07:43:27;10.43;;;1.70;;
52708;SDS011;38606;52.986;6.980;2022-08-20T07:45:54;8.52;;;1.70;;
52708;SDS011;38606;52.986;6.980;2022-08-20T07:48:22;7.63;;;1.90;;
52708;SDS011;38606;52.986;6.980;2022-08-20T07:50:55;11.07;;;1.90;;
52708;SDS011;38606;52.986;6.980;2022-08-20T07:53:22;9.90;;;2.03;;
52708;SDS011;38606;52.986;6.980;2022-08-20T07:55:48;6.97;;;1.40;;
52708;SDS011;38606;52.986;6.980;2022-08-20T07:58:14;9.65;;;1.77;;
52708;SDS011;38606;52.986;6.980;2022-08-20T08:00:44;8.10;;;1.58;;
52708;SDS011;38606;52.986;6.980;2022-08-20T08:03:10;7.30;;;1.40;;
52708;SDS011;38606;52.986;6.980;2022-08-20T08:05:37;8.82;;;1.42;;
52708;SDS011;38606;52.986;6.980;2022-08-20T08:08:06;6.93;;;1.38;;
52708;SDS011;38606;52.986;6.980;2022-08-20T08:10:35;7.63;;;1.38;;
52708;SDS011;38606;52.986;6.980;2022-08-20T08:13:03;6.60;;;1.33;;
52708;SDS011;38606;52.986;6.980;2022-08-20T08:15:31;5.13;;;1.15;;
52708;SDS011;38606;52.986;6.980;2022-08-20T08:18:05;5.75;;;1.52;;
52708;SDS011;38606;52.986;6.980;2022-08-20T08:20:35;6.90;;;1.83;;
52708;SDS011;38606;52.986;6.980;2022-08-20T08:23:06;6.32;;;1.42;;
52708;SDS011;38606;52.986;6.980;2022-08-20T08:25:36;6.80;;;1.50;;
52708;SDS011;38606;52.986;6.980;2022-08-20T08:28:07;7.13;;;2.08;;
52708;SDS011;38606;52.986;6.980;2022-08-20T08:30:36;8.63;;;1.52;;
52708;SDS011;38606;52.986;6.980;2022-08-20T08:33:04;6.68;;;1.40;;
52708;SDS011;38606;52.986;6.980;2022-08-20T08:35:49;7.25;;;1.48;;
52708;SDS011;38606;52.986;6.980;2022-08-20T08:38:16;6.45;;;1.30;;
52708;SDS011;38606;52.986;6.980;2022-08-20T08:40:42;7.15;;;1.50;;
52708;SDS011;38606;52.986;6.980;2022-08-20T08:43:08;8.57;;;1.52;;
52708;SDS011;38606;52.986;6.980;2022-08-20T08:45:41;7.10;;;1.38;;
52708;SDS011;38606;52.986;6.980;2022-08-20T08:50:38;7.97;;;1.20;;
52708;SDS011;38606;52.986;6.980;2022-08-20T08:53:07;7.32;;;1.65;;
52708;SDS011;38606;52.986;6.980;2022-08-20T08:55:50;8.48;;;1.63;;
52708;SDS011;38606;52.986;6.980;2022-08-20T08:58:15;4.22;;;1.10;;
52708;SDS011;38606;52.986;6.980;2022-08-20T09:00:41;12.60;;;2.00;;
52708;SDS011;38606;52.986;6.980;2022-08-20T09:03:09;7.90;;;1.40;;
52708;SDS011;38606;52.986;6.980;2022-08-20T09:05:48;9.68;;;1.30;;
52708;SDS011;38606;52.986;6.980;2022-08-20T09:08:18;5.28;;;1.00;;
52708;SDS011;38606;52.986;6.980;2022-08-20T09:10:49;6.07;;;0.90;;
52708;SDS011;38606;52.986;6.980;2022-08-20T09:13:15;4.45;;;1.13;;
52708;SDS011;38606;52.986;6.980;2022-08-20T09:15:41;6.22;;;1.30;;
52708;SDS011;38606;52.986;6.980;2022-08-20T09:18:07;4.75;;;1.23;;
52708;SDS011;38606;52.986;6.980;2022-08-20T09:20:33;7.32;;;1.02;;
52708;SDS011;38606;52.986;6.980;2022-08-20T09:22:59;11.77;;;2.45;;
52708;SDS011;38606;52.986;6.980;2022-08-20T09:25:25;7.25;;;1.20;;
52708;SDS011;38606;52.986;6.980;2022-08-20T09:27:50;6.25;;;1.10;;
52708;SDS011;38606;52.986;6.980;2022-08-20T09:30:16;6.60;;;1.25;;
52708;SDS011;38606;52.986;6.980;2022-08-20T09:32:42;4.68;;;1.23;;
52708;SDS011;38606;52.986;6.980;2022-08-20T09:35:09;4.90;;;1.42;;
52708;SDS011;38606;52.986;6.980;2022-08-20T09:37:35;4.00;;;0.93;;
52708;SDS011;38606;52.986;6.980;2022-08-20T09:40:02;5.78;;;1.17;;
52708;SDS011;38606;52.986;6.980;2022-08-20T09:42:29;4.50;;;1.20;;
52708;SDS011;38606;52.986;6.980;2022-08-20T09:44:57;5.70;;;1.08;;
52708;SDS011;38606;52.986;6.980;2022-08-20T09:47:24;7.90;;;1.25;;
52708;SDS011;38606;52.986;6.980;2022-08-20T09:49:50;5.90;;;1.17;;
52708;SDS011;38606;52.986;6.980;2022-08-20T09:52:27;4.32;;;0.93;;
52708;SDS011;38606;52.986;6.980;2022-08-20T09:54:58;5.03;;;1.10;;
52708;SDS011;38606;52.986;6.980;2022-08-20T09:57:29;8.13;;;1.77;;
52708;SDS011;38606;52.986;6.980;2022-08-20T09:59:58;6.40;;;1.00;;
52708;SDS011;38606;52.986;6.980;2022-08-20T10:02:28;4.40;;;1.60;;
52708;SDS011;38606;52.986;6.980;2022-08-20T10:04:54;4.25;;;1.10;;
52708;SDS011;38606;52.986;6.980;2022-08-20T10:07:20;4.82;;;1.10;;
52708;SDS011;38606;52.986;6.980;2022-08-20T10:09:45;6.72;;;1.33;;
52708;SDS011;38606;52.986;6.980;2022-08-20T10:12:11;3.30;;;0.98;;
52708;SDS011;38606;52.986;6.980;2022-08-20T10:14:37;8.32;;;1.30;;
52708;SDS011;38606;52.986;6.980;2022-08-20T10:17:03;6.25;;;1.15;;
52708;SDS011;38606;52.986;6.980;2022-08-20T10:19:29;3.42;;;1.02;;
52708;SDS011;38606;52.986;6.980;2022-08-20T10:21:55;2.92;;;0.90;;
52708;SDS011;38606;52.986;6.980;2022-08-20T10:24:21;4.10;;;0.80;;
52708;SDS011;38606;52.986;6.980;2022-08-20T10:26:47;5.72;;;1.25;;
52708;SDS011;38606;52.986;6.980;2022-08-20T10:29:14;3.08;;;1.10;;
52708;SDS011;38606;52.986;6.980;2022-08-20T10:31:40;4.93;;;0.90;;
52708;SDS011;38606;52.986;6.980;2022-08-20T10:34:06;4.00;;;0.80;;
52708;SDS011;38606;52.986;6.980;2022-08-20T10:36:31;6.43;;;0.80;;
52708;SDS011;38606;52.986;6.980;2022-08-20T10:38:57;5.75;;;0.93;;
52708;SDS011;38606;52.986;6.980;2022-08-20T10:41:23;3.40;;;0.80;;
52708;SDS011;38606;52.986;6.980;2022-08-20T10:43:49;4.97;;;1.08;;
52708;SDS011;38606;52.986;6.980;2022-08-20T10:46:14;5.85;;;1.00;;
52708;SDS011;38606;52.986;6.980;2022-08-20T10:48:41;2.38;;;0.80;;
52708;SDS011;38606;52.986;6.980;2022-08-20T10:51:07;4.72;;;1.05;;
52708;SDS011;38606;52.986;6.980;2022-08-20T10:53:32;7.03;;;1.00;;
52708;SDS011;38606;52.986;6.980;2022-08-20T10:55:58;4.80;;;1.27;;
52708;SDS011;38606;52.986;6.980;2022-08-20T10:58:24;3.88;;;0.90;;
52708;SDS011;38606;52.986;6.980;2022-08-20T11:00:51;6.60;;;1.20;;
52708;SDS011;38606;52.986;6.980;2022-08-20T11:03:17;5.50;;;1.00;;
52708;SDS011;38606;52.986;6.980;2022-08-20T11:05:44;4.70;;;0.88;;
52708;SDS011;38606;52.986;6.980;2022-08-20T11:08:10;3.05;;;0.80;;
52708;SDS011;38606;52.986;6.980;2022-08-20T11:10:36;5.05;;;1.33;;
52708;SDS011;38606;52.986;6.980;2022-08-20T11:13:03;4.95;;;0.90;;
52708;SDS011;38606;52.986;6.980;2022-08-20T11:15:31;3.42;;;1.00;;
52708;SDS011;38606;52.986;6.980;2022-08-20T11:17:59;3.55;;;0.90;;
52708;SDS011;38606;52.986;6.980;2022-08-20T11:20:25;4.85;;;0.82;;
52708;SDS011;38606;52.986;6.980;2022-08-20T11:22:51;5.75;;;1.20;;
52708;SDS011;38606;52.986;6.980;2022-08-20T11:25:18;4.57;;;0.90;;
52708;SDS011;38606;52.986;6.980;2022-08-20T11:27:45;6.53;;;1.42;;
52708;SDS011;38606;52.986;6.980;2022-08-20T11:30:14;3.30;;;0.75;;
52708;SDS011;38606;52.986;6.980;2022-08-20T11:32:46;5.07;;;0.80;;
52708;SDS011;38606;52.986;6.980;2022-08-20T11:35:12;5.45;;;1.00;;
52708;SDS011;38606;52.986;6.980;2022-08-20T11:37:38;5.65;;;1.10;;
52708;SDS011;38606;52.986;6.980;2022-08-20T11:40:04;3.80;;;0.98;;
52708;SDS011;38606;52.986;6.980;2022-08-20T11:42:32;3.22;;;0.90;;
52708;SDS011;38606;52.986;6.980;2022-08-20T11:44:59;4.82;;;0.93;;
52708;SDS011;38606;52.986;6.980;2022-08-20T11:47:26;4.10;;;1.10;;
52708;SDS011;38606;52.986;6.980;2022-08-20T11:50:00;6.00;;;1.15;;
52708;SDS011;38606;52.986;6.980;2022-08-20T11:52:29;3.65;;;1.27;;
52708;SDS011;38606;52.986;6.980;2022-08-20T11:54:56;6.05;;;1.05;;
52708;SDS011;38606;52.986;6.980;2022-08-20T11:57:23;3.55;;;1.02;;
52708;SDS011;38606;52.986;6.980;2022-08-20T11:59:57;3.45;;;1.10;;
52708;SDS011;38606;52.986;6.980;2022-08-20T12:02:24;2.63;;;1.10;;
52708;SDS011;38606;52.986;6.980;2022-08-20T12:04:51;2.67;;;1.00;;
52708;SDS011;38606;52.986;6.980;2022-08-20T12:07:18;5.20;;;1.17;;
52708;SDS011;38606;52.986;6.980;2022-08-20T12:09:45;6.68;;;1.85;;
52708;SDS011;38606;52.986;6.980;2022-08-20T12:12:13;5.50;;;1.10;;
52708;SDS011;38606;52.986;6.980;2022-08-20T12:14:40;5.80;;;1.50;;
52708;SDS011;38606;52.986;6.980;2022-08-20T12:17:28;4.45;;;0.82;;
52708;SDS011;38606;52.986;6.980;2022-08-20T12:19:54;4.38;;;1.52;;
52708;SDS011;38606;52.986;6.980;2022-08-20T12:22:21;4.55;;;1.60;;
52708;SDS011;38606;52.986;6.980;2022-08-20T12:24:47;5.38;;;1.23;;
52708;SDS011;38606;52.986;6.980;2022-08-20T12:27:15;4.07;;;1.10;;
52708;SDS011;38606;52.986;6.980;2022-08-20T12:29:43;8.27;;;1.38;;
52708;SDS011;38606;52.986;6.980;2022-08-20T12:32:10;5.07;;;1.10;;
52708;SDS011;38606;52.986;6.980;2022-08-20T12:34:37;3.35;;;0.93;;
52708;SDS011;38606;52.986;6.980;2022-08-20T12:37:15;5.78;;;1.30;;
52708;SDS011;38606;52.986;6.980;2022-08-20T12:39:44;3.38;;;0.95;;
52708;SDS011;38606;52.986;6.980;2022-08-20T12:42:12;3.85;;;1.25;;
52708;SDS011;38606;52.986;6.980;2022-08-20T12:44:38;3.67;;;1.42;;
52708;SDS011;38606;52.986;6.980;2022-08-20T12:47:23;5.13;;;1.63;;
52708;SDS011;38606;52.986;6.980;2022-08-20T12:49:55;5.63;;;1.23;;
52708;SDS011;38606;52.986;6.980;2022-08-20T12:52:25;6.20;;;1.23;;
52708;SDS011;38606;52.986;6.980;2022-08-20T12:54:52;6.65;;;1.63;;
52708;SDS011;38606;52.986;6.980;2022-08-20T12:59:50;6.10;;;1.40;;
52708;SDS011;38606;52.986;6.980;2022-08-20T13:02:15;6.78;;;1.50;;
52708;SDS011;38606;52.986;6.980;2022-08-20T13:04:44;5.30;;;1.45;;
52708;SDS011;38606;52.986;6.980;2022-08-20T13:07:10;3.45;;;1.15;;
52708;SDS011;38606;52.986;6.980;2022-08-20T13:09:37;4.97;;;1.75;;
52708;SDS011;38606;52.986;6.980;2022-08-20T13:12:04;4.78;;;1.42;;
52708;SDS011;38606;52.986;6.980;2022-08-20T13:14:30;5.32;;;1.40;;
52708;SDS011;38606;52.986;6.980;2022-08-20T13:16:56;4.97;;;1.08;;
52708;SDS011;38606;52.986;6.980;2022-08-20T13:19:23;5.15;;;1.10;;
52708;SDS011;38606;52.986;6.980;2022-08-20T13:21:50;3.20;;;1.15;;
52708;SDS011;38606;52.986;6.980;2022-08-20T13:24:16;3.83;;;1.30;;
52708;SDS011;38606;52.986;6.980;2022-08-20T13:26:42;4.65;;;1.38;;
52708;SDS011;38606;52.986;6.980;2022-08-20T13:29:08;8.00;;;1.50;;
52708;SDS011;38606;52.986;6.980;2022-08-20T13:31:33;4.75;;;1.45;;
52708;SDS011;38606;52.986;6.980;2022-08-20T13:33:59;4.30;;;1.20;;
52708;SDS011;38606;52.986;6.980;2022-08-20T13:36:25;5.30;;;1.40;;
52708;SDS011;38606;52.986;6.980;2022-08-20T13:38:51;5.25;;;1.10;;
52708;SDS011;38606;52.986;6.980;2022-08-20T13:41:16;3.85;;;1.10;;
52708;SDS011;38606;52.986;6.980;2022-08-20T13:43:42;3.75;;;1.17;;
52708;SDS011;38606;52.986;6.980;2022-08-20T13:46:08;5.85;;;1.27;;
52708;SDS011;38606;52.986;6.980;2022-08-20T13:48:33;6.32;;;1.60;;
52708;SDS011;38606;52.986;6.980;2022-08-20T13:50:59;4.53;;;1.23;;
52708;SDS011;38606;52.986;6.980;2022-08-20T13:53:25;4.03;;;1.27;;
52708;SDS011;38606;52.986;6.980;2022-08-20T13:55:51;5.78;;;1.40;;
52708;SDS011;38606;52.986;6.980;2022-08-20T13:58:16;4.70;;;1.35;;
52708;SDS011;38606;52.986;6.980;2022-08-20T14:00:43;5.40;;;1.23;;
52708;SDS011;38606;52.986;6.980;2022-08-20T14:03:10;3.63;;;1.23;;
52708;SDS011;38606;52.986;6.980;2022-08-20T14:05:36;5.65;;;1.58;;
52708;SDS011;38606;52.986;6.980;2022-08-20T14:08:07;4.82;;;1.30;;
52708;SDS011;38606;52.986;6.980;2022-08-20T14:10:39;5.18;;;1.85;;
52708;SDS011;38606;52.986;6.980;2022-08-20T14:13:06;5.13;;;1.48;;
52708;SDS011;38606;52.986;6.980;2022-08-20T14:15:32;4.35;;;1.27;;
52708;SDS011;38606;52.986;6.980;2022-08-20T14:17:59;5.13;;;1.60;;
52708;SDS011;38606;52.986;6.980;2022-08-20T14:20:26;7.13;;;1.42;;
52708;SDS011;38606;52.986;6.980;2022-08-20T14:22:54;6.05;;;1.50;;
52708;SDS011;38606;52.986;6.980;2022-08-20T14:25:21;4.40;;;1.55;;
52708;SDS011;38606;52.986;6.980;2022-08-20T14:27:47;4.80;;;1.83;;
52708;SDS011;38606;52.986;6.980;2022-08-20T14:30:15;7.78;;;1.42;;
52708;SDS011;38606;52.986;6.980;2022-08-20T14:32:42;7.13;;;1.50;;
52708;SDS011;38606;52.986;6.980;2022-08-20T14:35:08;5.60;;;1.30;;
52708;SDS011;38606;52.986;6.980;2022-08-20T14:37:40;5.68;;;1.35;;
52708;SDS011;38606;52.986;6.980;2022-08-20T14:42:35;4.05;;;1.52;;
52708;SDS011;38606;52.986;6.980;2022-08-20T14:45:01;6.43;;;1.70;;
52708;SDS011;38606;52.986;6.980;2022-08-20T14:47:48;6.53;;;1.58;;
52708;SDS011;38606;52.986;6.980;2022-08-20T14:52:50;7.90;;;1.40;;
52708;SDS011;38606;52.986;6.980;2022-08-20T14:55:17;6.32;;;1.52;;
52708;SDS011;38606;52.986;6.980;2022-08-20T14:57:45;8.18;;;2.00;;
52708;SDS011;38606;52.986;6.980;2022-08-20T15:00:15;4.18;;;1.50;;
52708;SDS011;38606;52.986;6.980;2022-08-20T15:02:44;4.40;;;1.35;;